Time;durP1;ratioP1;P1;durP2;ratioP2;P2;SDS_P1;SDS_P2;PMS_P1;PMS_P2;Temp;Humidity;BMP_temperature;BMP_pressure;BME280_temperature;BME280_humidity;BME280_pressure;Samples;Min_cycle;Max_cycle;Signal;HPM_P1;HPM_P2
2023/09/14 00:02:37;;;;;;;;;;;15.90;77.90;;;;;;5025339;28;19925;-69
2023/09/14 00:05:11;;;;;;;;;;;15.90;78.00;;;;;;5025843;28;19952;-70
2023/09/14 00:07:44;;;;;;;;;;;15.90;77.90;;;;;;5026116;28;19940;-70
2023/09/14 00:10:17;;;;;;;;;;;15.80;77.80;;;;;;5026139;28;20016;-71
2023/09/14 00:12:51;;;;;;;;;;;15.70;78.10;;;;;;5026807;28;19936;-69
2023/09/14 00:15:24;;;;;;;;;;;15.70;78.00;;;;;;5023137;28;19932;-69
2023/09/14 00:17:52;;;;;;;;;;;15.70;78.00;;;;;;5025281;28;19932;-70
2023/09/14 00:20:27;;;;;;;;;;;15.70;77.90;;;;;;5024296;28;19932;-70
2023/09/14 00:23:00;;;;;;;;;;;15.60;77.80;;;;;;5024983;28;19932;-72
2023/09/14 00:25:33;;;;;;;;;;;15.60;77.80;;;;;;5025022;28;19931;-70
2023/09/14 00:28:06;;;;;;;;;;;15.50;77.90;;;;;;5025544;28;19935;-71
2023/09/14 00:30:39;;;;;;;;;;;15.50;77.80;;;;;;5023411;28;20023;-70
2023/09/14 00:33:13;;;;;;;;;;;15.40;77.90;;;;;;5024942;28;20023;-69
2023/09/14 00:35:47;;;;;;;;;;;15.40;78.00;;;;;;5012631;28;19968;-71
2023/09/14 00:38:22;;;;;;;;;;;15.50;78.00;;;;;;5025175;28;19967;-70
2023/09/14 00:40:55;;;;;;;;;;;15.50;78.00;;;;;;5024682;28;19925;-71
2023/09/14 00:43:35;;;;;;;;;;;15.40;78.10;;;;;;5024667;28;19933;-70
2023/09/14 00:46:08;;;;;;;;;;;15.50;78.20;;;;;;5025533;28;19998;-70
2023/09/14 00:48:41;;;;;;;;;;;15.40;78.20;;;;;;5022398;28;19940;-70
2023/09/14 00:51:15;;;;;;;;;;;15.40;78.30;;;;;;5023305;28;19925;-70
2023/09/14 00:53:50;;;;;;;;;;;15.40;78.40;;;;;;5027090;28;19925;-71
2023/09/14 00:56:23;;;;;;;;;;;15.30;78.50;;;;;;5026159;28;19965;-70
2023/09/14 00:58:56;;;;;;;;;;;15.20;78.50;;;;;;5013197;28;20016;-70
2023/09/14 01:01:31;;;;;;;;;;;15.10;78.60;;;;;;5023738;28;19929;-70
2023/09/14 01:04:07;;;;;;;;;;;15.10;78.70;;;;;;5022861;28;19975;-70
2023/09/14 01:06:41;;;;;;;;;;;15.10;78.80;;;;;;5024470;28;19987;-70
2023/09/14 01:09:16;;;;;;;;;;;15.10;79.00;;;;;;5023721;28;19935;-68
2023/09/14 01:11:49;;;;;;;;;;;15.20;79.80;;;;;;5022461;28;19925;-68
2023/09/14 01:14:26;;;;;;;;;;;15.40;80.30;;;;;;5022566;28;20280;-68
2023/09/14 01:17:02;;;;;;;;;;;15.40;80.10;;;;;;5011842;28;19925;-68
2023/09/14 01:19:46;;;;;;;;;;;15.50;79.90;;;;;;5003731;28;19925;-68
2023/09/14 01:22:27;;;;;;;;;;;15.50;79.70;;;;;;5010456;28;20022;-67
2023/09/14 01:25:04;;;;;;;;;;;15.40;79.50;;;;;;5023193;28;19929;-67
2023/09/14 01:27:39;;;;;;;;;;;15.40;79.30;;;;;;5023621;28;20022;-67
2023/09/14 01:30:12;;;;;;;;;;;15.50;79.20;;;;;;5022020;28;19929;-68
2023/09/14 01:32:45;;;;;;;;;;;15.50;79.10;;;;;;5018043;28;19929;-72
2023/09/14 01:35:18;;;;;;;;;;;15.40;79.00;;;;;;5011066;28;20016;-72
2023/09/14 01:37:51;;;;;;;;;;;15.40;79.00;;;;;;5008780;28;20427;-72
2023/09/14 01:40:24;;;;;;;;;;;15.40;78.70;;;;;;5022500;28;19925;-72
2023/09/14 01:42:59;;;;;;;;;;;15.30;78.50;;;;;;5025292;28;20398;-71
2023/09/14 01:45:34;;;;;;;;;;;15.40;78.40;;;;;;5000226;28;20012;-72
2023/09/14 01:48:07;;;;;;;;;;;15.40;78.60;;;;;;5023585;28;19932;-70
2023/09/14 01:50:40;;;;;;;;;;;15.40;78.50;;;;;;5022650;28;20008;-72
2023/09/14 01:53:14;;;;;;;;;;;15.40;78.50;;;;;;5017097;28;20064;-72
2023/09/14 01:55:47;;;;;;;;;;;15.30;78.20;;;;;;5022252;28;19929;-71
2023/09/14 01:58:21;;;;;;;;;;;15.20;78.40;;;;;;5025394;28;20020;-72
2023/09/14 02:00:56;;;;;;;;;;;15.20;78.60;;;;;;5022005;28;19987;-72
2023/09/14 02:03:29;;;;;;;;;;;15.10;78.50;;;;;;5019635;28;19936;-72
2023/09/14 02:06:03;;;;;;;;;;;15.10;78.30;;;;;;5024644;28;19998;-72
2023/09/14 02:08:36;;;;;;;;;;;15.10;78.50;;;;;;5024853;28;19925;-72
2023/09/14 02:11:09;;;;;;;;;;;15.20;78.40;;;;;;5022453;28;19926;-71
2023/09/14 02:13:43;;;;;;;;;;;15.20;78.40;;;;;;5005402;28;19933;-72
2023/09/14 02:16:17;;;;;;;;;;;15.10;78.30;;;;;;5023005;28;19940;-72
2023/09/14 02:18:44;;;;;;;;;;;15.00;78.30;;;;;;5018698;28;19926;-73
2023/09/14 02:21:17;;;;;;;;;;;15.00;78.30;;;;;;5019110;28;20495;-72
2023/09/14 02:23:50;;;;;;;;;;;14.90;78.20;;;;;;5021427;28;19946;-72
2023/09/14 02:26:23;;;;;;;;;;;14.90;78.20;;;;;;5021522;28;20820;-71
2023/09/14 02:28:58;;;;;;;;;;;14.90;78.20;;;;;;5026478;28;20168;-72
2023/09/14 02:31:31;;;;;;;;;;;14.90;78.20;;;;;;5023464;28;19933;-72
2023/09/14 02:34:04;;;;;;;;;;;14.80;78.20;;;;;;5023866;28;19925;-71
2023/09/14 02:36:37;;;;;;;;;;;14.70;78.30;;;;;;5025649;28;19925;-72
2023/09/14 02:39:10;;;;;;;;;;;14.70;78.30;;;;;;5010194;28;20016;-72
2023/09/14 02:41:50;;;;;;;;;;;14.70;78.30;;;;;;5023785;28;19999;-73
2023/09/14 02:44:25;;;;;;;;;;;14.70;78.40;;;;;;5010815;28;19929;-73
2023/09/14 02:46:59;;;;;;;;;;;14.60;78.60;;;;;;5023345;28;19925;-74
2023/09/14 02:49:33;;;;;;;;;;;14.60;78.60;;;;;;5022210;28;19952;-73
2023/09/14 02:52:00;;;;;;;;;;;14.60;78.70;;;;;;5023143;28;20376;-74
2023/09/14 02:54:33;;;;;;;;;;;14.60;78.70;;;;;;5020594;28;20610;-72
2023/09/14 02:57:07;;;;;;;;;;;14.60;79.00;;;;;;5023776;28;19929;-73
2023/09/14 02:59:41;;;;;;;;;;;14.60;79.00;;;;;;5022604;28;19932;-73
2023/09/14 03:02:15;;;;;;;;;;;14.60;78.80;;;;;;5020779;28;19929;-73
2023/09/14 03:04:48;;;;;;;;;;;14.60;78.80;;;;;;5021209;28;19936;-74
2023/09/14 03:07:21;;;;;;;;;;;14.60;78.80;;;;;;5022991;28;19929;-74
2023/09/14 03:09:55;;;;;;;;;;;14.60;78.70;;;;;;5019326;28;19944;-73
2023/09/14 03:12:29;;;;;;;;;;;14.60;78.60;;;;;;5008117;28;19925;-73
2023/09/14 03:15:04;;;;;;;;;;;14.60;78.50;;;;;;5024931;28;19932;-74
2023/09/14 03:17:37;;;;;;;;;;;14.60;78.40;;;;;;5025567;28;20315;-74
2023/09/14 03:20:11;;;;;;;;;;;14.60;78.30;;;;;;5024887;28;19941;-73
2023/09/14 03:22:44;;;;;;;;;;;14.50;78.40;;;;;;5025432;28;19932;-73
2023/09/14 03:25:18;;;;;;;;;;;14.50;78.40;;;;;;5027464;28;19929;-74
2023/09/14 03:27:51;;;;;;;;;;;14.40;78.50;;;;;;5026109;28;19930;-72
2023/09/14 03:30:19;;;;;;;;;;;14.40;78.70;;;;;;5028747;28;19929;-73
2023/09/14 03:32:53;;;;;;;;;;;14.30;78.80;;;;;;5025828;28;19925;-73
2023/09/14 03:35:26;;;;;;;;;;;14.30;79.00;;;;;;5022778;28;19925;-74
2023/09/14 03:37:59;;;;;;;;;;;14.30;79.00;;;;;;5019640;28;20292;-74
2023/09/14 03:40:32;;;;;;;;;;;14.30;78.80;;;;;;5008906;28;19933;-75
2023/09/14 03:43:05;;;;;;;;;;;14.30;78.70;;;;;;5023267;28;19925;-73
2023/09/14 03:45:39;;;;;;;;;;;14.30;78.70;;;;;;5026267;28;19948;-74
2023/09/14 03:48:13;;;;;;;;;;;14.20;78.80;;;;;;5023930;28;20346;-74
2023/09/14 03:50:46;;;;;;;;;;;14.20;78.80;;;;;;5024010;28;19925;-74
2023/09/14 03:53:19;;;;;;;;;;;14.10;78.80;;;;;;5026100;28;19964;-74
2023/09/14 03:55:52;;;;;;;;;;;14.10;78.90;;;;;;5012528;28;19925;-74
2023/09/14 03:58:25;;;;;;;;;;;14.20;78.90;;;;;;5023934;28;19940;-74
2023/09/14 04:01:00;;;;;;;;;;;14.20;78.90;;;;;;5021049;28;19936;-74
2023/09/14 04:03:33;;;;;;;;;;;14.10;78.90;;;;;;5024820;28;19956;-74
2023/09/14 04:06:07;;;;;;;;;;;14.10;78.80;;;;;;5030450;28;19929;-73
2023/09/14 04:08:40;;;;;;;;;;;14.10;78.60;;;;;;5025439;28;19972;-75
2023/09/14 04:11:13;;;;;;;;;;;14.10;78.70;;;;;;5025603;28;19929;-73
2023/09/14 04:13:47;;;;;;;;;;;14.00;78.60;;;;;;5024959;28;19933;-74
2023/09/14 04:16:22;;;;;;;;;;;14.00;78.60;;;;;;5022217;28;19952;-73
2023/09/14 04:19:00;;;;;;;;;;;13.90;79.10;;;;;;5013355;28;19925;-73
2023/09/14 04:21:34;;;;;;;;;;;13.90;78.70;;;;;;5018661;28;19964;-74
2023/09/14 04:24:07;;;;;;;;;;;13.90;78.70;;;;;;5026025;28;20008;-72
2023/09/14 04:26:40;;;;;;;;;;;13.90;78.70;;;;;;5019598;28;19926;-74
2023/09/14 04:29:13;;;;;;;;;;;13.90;78.80;;;;;;5013303;28;19983;-72
2023/09/14 04:31:48;;;;;;;;;;;13.90;78.90;;;;;;5025569;28;19925;-73
2023/09/14 04:34:22;;;;;;;;;;;13.90;78.80;;;;;;5025170;28;19961;-74
2023/09/14 04:36:55;;;;;;;;;;;13.90;78.70;;;;;;5012156;28;19936;-74
2023/09/14 04:39:28;;;;;;;;;;;13.90;78.60;;;;;;5012890;28;19995;-74
2023/09/14 04:42:01;;;;;;;;;;;13.90;78.60;;;;;;5011052;28;19937;-74
2023/09/14 04:44:34;;;;;;;;;;;13.80;78.80;;;;;;5008618;28;20420;-74
2023/09/14 04:47:08;;;;;;;;;;;13.70;79.10;;;;;;5010537;28;20407;-73
2023/09/14 04:49:42;;;;;;;;;;;13.70;79.20;;;;;;5025283;28;20011;-74
2023/09/14 04:52:15;;;;;;;;;;;13.70;79.30;;;;;;5021093;28;20104;-74
2023/09/14 04:54:48;;;;;;;;;;;13.70;79.20;;;;;;5024699;28;20426;-74
2023/09/14 04:57:24;;;;;;;;;;;13.70;79.10;;;;;;5024396;28;20427;-74
2023/09/14 04:59:57;;;;;;;;;;;13.70;79.30;;;;;;5025672;28;19979;-74
2023/09/14 05:02:31;;;;;;;;;;;13.60;79.30;;;;;;5007738;28;19933;-73
2023/09/14 05:05:06;;;;;;;;;;;13.70;79.20;;;;;;5026035;28;19925;-71
2023/09/14 05:07:42;;;;;;;;;;;13.70;79.20;;;;;;5026830;28;19937;-74
2023/09/14 05:10:16;;;;;;;;;;;13.70;79.20;;;;;;5021923;28;20016;-74
2023/09/14 05:12:49;;;;;;;;;;;13.60;79.30;;;;;;5024909;28;19934;-72
2023/09/14 05:15:23;;;;;;;;;;;13.70;79.30;;;;;;5022442;28;19931;-74
2023/09/14 05:17:57;;;;;;;;;;;13.60;79.30;;;;;;5005776;28;20610;-74
2023/09/14 05:20:31;;;;;;;;;;;13.60;79.30;;;;;;5009759;28;20011;-74
2023/09/14 05:23:04;;;;;;;;;;;13.60;79.30;;;;;;5022367;28;19929;-74
2023/09/14 05:25:37;;;;;;;;;;;13.60;79.20;;;;;;5019692;28;20292;-74
2023/09/14 05:28:10;;;;;;;;;;;13.60;79.10;;;;;;5023738;28;20365;-73
2023/09/14 05:30:44;;;;;;;;;;;13.60;79.00;;;;;;5020558;28;19932;-74
2023/09/14 05:33:19;;;;;;;;;;;13.60;78.70;;;;;;5010463;28;19932;-72
2023/09/14 05:35:52;;;;;;;;;;;13.70;78.40;;;;;;5011663;28;20398;-73
2023/09/14 05:38:26;;;;;;;;;;;13.60;78.60;;;;;;5025861;28;19948;-74
2023/09/14 05:41:00;;;;;;;;;;;13.60;78.50;;;;;;5020189;28;19929;-74
2023/09/14 05:43:33;;;;;;;;;;;13.60;78.50;;;;;;5006946;28;20257;-74
2023/09/14 05:46:07;;;;;;;;;;;13.60;78.60;;;;;;5024117;28;19925;-75
2023/09/14 05:48:42;;;;;;;;;;;13.60;78.60;;;;;;5024133;28;19933;-74
2023/09/14 05:51:15;;;;;;;;;;;13.60;78.60;;;;;;5024440;28;20023;-74
2023/09/14 05:53:48;;;;;;;;;;;13.60;78.80;;;;;;5022357;28;19936;-75
2023/09/14 05:56:22;;;;;;;;;;;13.70;78.50;;;;;;5023174;28;19931;-74
2023/09/14 05:58:55;;;;;;;;;;;13.70;78.50;;;;;;5021825;28;19976;-74
2023/09/14 06:01:28;;;;;;;;;;;13.80;78.60;;;;;;5023299;28;19936;-74
2023/09/14 06:04:03;;;;;;;;;;;13.80;78.60;;;;;;5009806;28;20438;-73
2023/09/14 06:06:36;;;;;;;;;;;13.80;78.50;;;;;;5023316;28;20419;-74
2023/09/14 06:09:09;;;;;;;;;;;13.80;78.60;;;;;;5010925;28;20376;-74
2023/09/14 06:11:42;;;;;;;;;;;13.90;78.60;;;;;;5021398;28;20011;-68
2023/09/14 06:14:15;;;;;;;;;;;13.90;78.80;;;;;;5010351;28;19948;-68
2023/09/14 06:16:48;;;;;;;;;;;13.90;78.80;;;;;;5008124;28;19929;-68
2023/09/14 06:19:22;;;;;;;;;;;13.90;78.70;;;;;;5023894;28;19979;-67
2023/09/14 06:21:55;;;;;;;;;;;13.90;78.70;;;;;;5024541;28;19935;-67
2023/09/14 06:24:29;;;;;;;;;;;14.00;78.80;;;;;;5023372;28;19929;-67
2023/09/14 06:27:02;;;;;;;;;;;14.10;78.60;;;;;;5022783;28;19956;-68
2023/09/14 06:29:35;;;;;;;;;;;14.20;78.60;;;;;;5004946;28;20007;-67
2023/09/14 06:32:08;;;;;;;;;;;14.30;78.40;;;;;;5023405;28;19983;-68
2023/09/14 06:34:49;;;;;;;;;;;14.30;78.30;;;;;;5022627;28;19929;-68
2023/09/14 06:37:22;;;;;;;;;;;14.30;78.50;;;;;;5021622;28;20862;-68
2023/09/14 06:39:56;;;;;;;;;;;14.40;78.30;;;;;;5022736;28;20800;-68
2023/09/14 06:42:29;;;;;;;;;;;14.40;77.80;;;;;;5023231;28;20296;-67
2023/09/14 06:45:03;;;;;;;;;;;14.50;77.70;;;;;;5021256;28;20422;-69
2023/09/14 06:47:36;;;;;;;;;;;14.50;78.10;;;;;;5022567;28;19925;-68
2023/09/14 06:50:12;;;;;;;;;;;14.50;78.30;;;;;;5022659;28;19999;-68
2023/09/14 06:52:45;;;;;;;;;;;14.50;78.40;;;;;;5021590;28;19929;-68
2023/09/14 06:55:19;;;;;;;;;;;14.50;78.50;;;;;;5022060;28;19929;-68
2023/09/14 06:57:52;;;;;;;;;;;14.60;78.30;;;;;;5023237;28;20008;-68
2023/09/14 07:00:26;;;;;;;;;;;14.50;78.60;;;;;;5023911;28;19932;-68
2023/09/14 07:02:59;;;;;;;;;;;14.60;78.50;;;;;;5021119;28;19929;-67
2023/09/14 07:05:35;;;;;;;;;;;14.60;78.80;;;;;;5023254;28;19936;-67
2023/09/14 07:08:08;;;;;;;;;;;14.60;78.70;;;;;;5022606;28;20015;-67
2023/09/14 07:10:41;;;;;;;;;;;14.60;78.90;;;;;;5022573;28;19935;-69
2023/09/14 07:13:14;;;;;;;;;;;14.60;79.30;;;;;;5023014;28;19929;-68
2023/09/14 07:15:47;;;;;;;;;;;14.60;79.20;;;;;;5022347;28;19933;-68
2023/09/14 07:18:30;;;;;;;;;;;14.60;79.40;;;;;;5020236;28;19933;-68
2023/09/14 07:21:05;;;;;;;;;;;14.70;79.30;;;;;;5016595;28;19932;-68
2023/09/14 07:23:38;;;;;;;;;;;14.90;79.20;;;;;;5022529;28;19929;-73
2023/09/14 07:26:11;;;;;;;;;;;15.00;79.10;;;;;;5022714;28;19952;-73
2023/09/14 07:28:44;;;;;;;;;;;15.30;78.20;;;;;;5024731;28;20020;-74
2023/09/14 07:31:17;;;;;;;;;;;15.40;78.00;;;;;;5022147;28;19936;-74
2023/09/14 07:33:50;;;;;;;;;;;15.60;77.80;;;;;;5021515;28;19929;-74
2023/09/14 07:36:25;;;;;;;;;;;15.60;77.70;;;;;;5021384;28;20392;-73
2023/09/14 07:38:59;;;;;;;;;;;15.70;78.10;;;;;;5014597;28;19933;-74
2023/09/14 07:41:32;;;;;;;;;;;15.70;77.90;;;;;;5022687;28;19929;-73
2023/09/14 07:44:05;;;;;;;;;;;15.90;78.10;;;;;;5021050;28;19929;-70
2023/09/14 07:46:39;;;;;;;;;;;16.10;77.70;;;;;;5022470;28;19940;-73
2023/09/14 07:49:13;;;;;;;;;;;16.20;77.10;;;;;;5025191;28;19925;-73
2023/09/14 07:51:47;;;;;;;;;;;16.40;76.80;;;;;;5020894;28;20023;-73
2023/09/14 07:54:21;;;;;;;;;;;16.40;77.10;;;;;;5022480;28;19929;-73
2023/09/14 07:56:55;;;;;;;;;;;16.80;75.70;;;;;;5022443;28;20341;-73
2023/09/14 07:59:28;;;;;;;;;;;16.90;75.50;;;;;;5021445;28;19929;-73
2023/09/14 08:02:08;;;;;;;;;;;17.00;75.10;;;;;;5026660;28;19933;-73
2023/09/14 08:04:41;;;;;;;;;;;16.90;75.70;;;;;;5024285;28;20016;-73
2023/09/14 08:07:16;;;;;;;;;;;17.00;75.90;;;;;;5024129;28;20539;-74
2023/09/14 08:09:49;;;;;;;;;;;17.10;75.60;;;;;;5026206;28;20002;-73
2023/09/14 08:12:22;;;;;;;;;;;17.40;74.80;;;;;;5024030;28;19932;-72
2023/09/14 08:14:49;;;;;;;;;;;17.40;75.00;;;;;;5026464;28;20399;-73
2023/09/14 08:17:23;;;;;;;;;;;17.60;75.10;;;;;;5023677;28;19940;-72
2023/09/14 08:19:49;;;;;;;;;;;17.60;74.60;;;;;;5026419;28;19937;-73
2023/09/14 08:22:23;;;;;;;;;;;17.90;73.90;;;;;;5024034;28;20409;-73
2023/09/14 08:25:00;;;;;;;;;;;18.10;73.70;;;;;;5024542;28;19925;-73
2023/09/14 08:27:34;;;;;;;;;;;18.10;73.40;;;;;;5024888;28;19929;-73
2023/09/14 08:30:08;;;;;;;;;;;18.20;73.20;;;;;;5024262;28;20428;-72
2023/09/14 08:32:41;;;;;;;;;;;18.10;72.70;;;;;;5025155;28;20557;-80
2023/09/14 08:35:21;;;;;;;;;;;18.10;72.60;;;;;;5027207;28;20796;-80
2023/09/14 08:37:56;;;;;;;;;;;18.00;73.20;;;;;;5024077;28;19925;-79
2023/09/14 08:40:23;;;;;;;;;;;18.10;72.70;;;;;;5025138;28;20384;-79
2023/09/14 08:42:57;;;;;;;;;;;18.20;72.60;;;;;;5025690;28;19932;-80
2023/09/14 08:45:31;;;;;;;;;;;18.30;72.30;;;;;;5025894;28;19929;-80
2023/09/14 08:48:05;;;;;;;;;;;18.40;71.80;;;;;;5025410;28;19956;-79
2023/09/14 08:50:40;;;;;;;;;;;18.40;71.30;;;;;;5024780;28;19929;-80
2023/09/14 08:53:16;;;;;;;;;;;18.40;71.60;;;;;;5024811;28;20408;-80
2023/09/14 08:55:51;;;;;;;;;;;18.60;71.60;;;;;;5026386;28;19956;-78
2023/09/14 08:58:25;;;;;;;;;;;18.60;71.50;;;;;;5025775;28;19936;-79
2023/09/14 09:00:58;;;;;;;;;;;18.70;71.00;;;;;;5024950;28;20387;-80
2023/09/14 09:03:34;;;;;;;;;;;18.90;69.30;;;;;;5025445;28;19929;-81
2023/09/14 09:06:08;;;;;;;;;;;19.00;69.30;;;;;;5024859;28;19929;-78
2023/09/14 09:08:37;;;;;;;;;;;19.00;69.20;;;;;;5025672;28;19944;-81
2023/09/14 09:11:10;;;;;;;;;;;19.20;69.00;;;;;;5023663;28;19964;-77
2023/09/14 09:13:45;;;;;;;;;;;19.30;68.50;;;;;;5025948;28;19925;-80
2023/09/14 09:16:18;;;;;;;;;;;19.50;67.60;;;;;;5025458;28;20020;-78
2023/09/14 09:19:00;;;;;;;;;;;19.60;67.20;;;;;;5024668;28;20020;-79
2023/09/14 09:21:35;;;;;;;;;;;19.70;66.50;;;;;;5024533;28;19940;-79
2023/09/14 09:24:13;;;;;;;;;;;19.90;67.00;;;;;;5025678;28;19929;-79
2023/09/14 09:26:46;;;;;;;;;;;20.00;66.00;;;;;;5025425;28;20038;-79
2023/09/14 09:29:22;;;;;;;;;;;20.10;65.50;;;;;;5025728;28;20351;-79
2023/09/14 09:31:55;;;;;;;;;;;20.10;65.50;;;;;;5025119;28;19932;-79
2023/09/14 09:34:33;;;;;;;;;;;20.10;65.10;;;;;;5024347;28;20941;-79
2023/09/14 09:37:06;;;;;;;;;;;20.00;64.60;;;;;;5024198;28;20339;-79
2023/09/14 09:39:41;;;;;;;;;;;20.10;63.80;;;;;;5024491;28;19936;-79
2023/09/14 09:42:14;;;;;;;;;;;20.10;64.00;;;;;;5021475;28;19925;-67
2023/09/14 09:44:48;;;;;;;;;;;20.20;63.80;;;;;;5024552;28;20372;-67
2023/09/14 09:47:22;;;;;;;;;;;20.40;63.40;;;;;;5023511;28;19964;-67
2023/09/14 09:49:55;;;;;;;;;;;20.60;62.80;;;;;;5024369;28;19926;-67
2023/09/14 09:52:31;;;;;;;;;;;20.70;62.70;;;;;;5021275;28;19925;-67
2023/09/14 09:55:06;;;;;;;;;;;20.70;62.50;;;;;;5025726;28;19926;-68
2023/09/14 09:57:49;;;;;;;;;;;20.80;62.60;;;;;;5022653;28;19929;-68
2023/09/14 10:00:27;;;;;;;;;;;20.80;62.10;;;;;;5023007;28;19925;-68
2023/09/14 10:03:01;;;;;;;;;;;20.90;59.90;;;;;;5024793;28;19979;-67
2023/09/14 10:05:38;;;;;;;;;;;21.10;59.50;;;;;;5019277;28;20015;-67
2023/09/14 10:08:12;;;;;;;;;;;21.10;59.70;;;;;;5021703;28;19936;-68
2023/09/14 10:10:51;;;;;;;;;;;21.10;59.20;;;;;;5024339;28;19929;-67
2023/09/14 10:13:25;;;;;;;;;;;21.10;59.40;;;;;;5012613;28;20007;-67
2023/09/14 10:15:59;;;;;;;;;;;21.20;59.20;;;;;;5023384;28;19939;-68
2023/09/14 10:18:33;;;;;;;;;;;21.30;59.50;;;;;;5021971;28;20004;-68
2023/09/14 10:21:07;;;;;;;;;;;21.40;59.20;;;;;;5022624;28;20446;-68
2023/09/14 10:23:40;;;;;;;;;;;21.50;58.80;;;;;;5023219;28;19936;-67
2023/09/14 10:26:15;;;;;;;;;;;21.50;58.30;;;;;;5023776;28;19957;-68
2023/09/14 10:28:42;;;;;;;;;;;21.50;57.90;;;;;;5024129;28;19925;-68
2023/09/14 10:31:19;;;;;;;;;;;21.60;58.50;;;;;;5019167;28;19980;-68
2023/09/14 10:33:59;;;;;;;;;;;21.60;58.30;;;;;;5024437;28;19929;-68
2023/09/14 10:36:39;;;;;;;;;;;21.70;58.10;;;;;;5023945;28;20022;-68
2023/09/14 10:39:16;;;;;;;;;;;21.80;57.60;;;;;;5012391;28;19929;-67
2023/09/14 10:41:52;;;;;;;;;;;21.80;58.00;;;;;;5023862;28;19929;-68
2023/09/14 10:44:27;;;;;;;;;;;21.90;58.10;;;;;;5024138;28;19933;-68
2023/09/14 10:47:02;;;;;;;;;;;21.90;57.90;;;;;;5024281;28;19929;-68
2023/09/14 10:49:36;;;;;;;;;;;22.10;58.10;;;;;;5021974;28;19932;-67
2023/09/14 10:52:09;;;;;;;;;;;22.20;57.80;;;;;;5022682;28;19932;-71
2023/09/14 10:54:44;;;;;;;;;;;22.30;57.30;;;;;;5023936;28;19932;-71
2023/09/14 10:57:23;;;;;;;;;;;22.50;57.80;;;;;;5022617;28;19931;-71
2023/09/14 10:59:58;;;;;;;;;;;22.60;57.00;;;;;;5024119;28;19940;-71
2023/09/14 11:02:50;;;;;;;;;;;22.60;56.10;;;;;;5023155;28;19933;-71
2023/09/14 11:05:24;;;;;;;;;;;22.50;55.80;;;;;;5021382;28;20016;-70
2023/09/14 11:07:59;;;;;;;;;;;22.60;56.20;;;;;;5021396;28;20002;-72
2023/09/14 11:10:34;;;;;;;;;;;22.60;56.80;;;;;;5023261;28;20384;-70
2023/09/14 11:13:30;;;;;;;;;;;22.60;56.60;;;;;;5022726;28;19929;-71
2023/09/14 11:16:06;;;;;;;;;;;22.50;55.40;;;;;;5020327;28;19933;-69
2023/09/14 11:18:56;;;;;;;;;;;22.50;54.90;;;;;;5021381;28;19929;-73
2023/09/14 11:21:44;;;;;;;;;;;22.40;54.80;;;;;;5021651;28;20969;-71
2023/09/14 11:24:18;;;;;;;;;;;22.40;54.80;;;;;;5020040;28;19983;-71
2023/09/14 11:26:51;;;;;;;;;;;22.40;55.40;;;;;;5023548;28;19933;-71
2023/09/14 11:29:27;;;;;;;;;;;22.60;56.20;;;;;;5021933;28;20007;-71
2023/09/14 11:32:01;;;;;;;;;;;22.60;55.40;;;;;;5021122;28;20342;-71
2023/09/14 11:34:36;;;;;;;;;;;22.60;54.70;;;;;;5024245;28;20386;-71
2023/09/14 11:37:12;;;;;;;;;;;22.70;55.30;;;;;;5024692;28;19964;-71
2023/09/14 11:39:52;;;;;;;;;;;22.70;55.30;;;;;;5026490;28;19925;-71
2023/09/14 11:42:25;;;;;;;;;;;22.90;55.50;;;;;;5025950;28;20027;-71
2023/09/14 11:45:00;;;;;;;;;;;23.00;55.90;;;;;;5027319;28;19936;-72
2023/09/14 11:47:34;;;;;;;;;;;23.00;55.60;;;;;;5023576;28;19972;-71
2023/09/14 11:50:08;;;;;;;;;;;23.10;56.10;;;;;;5025549;28;19929;-70
2023/09/14 11:52:41;;;;;;;;;;;23.10;55.50;;;;;;5025312;28;19929;-71
2023/09/14 11:55:15;;;;;;;;;;;23.10;55.30;;;;;;5024417;28;19930;-70
2023/09/14 11:57:48;;;;;;;;;;;23.20;54.00;;;;;;5025878;28;19925;-71
2023/09/14 12:00:23;;;;;;;;;;;23.10;54.00;;;;;;5024311;28;19943;-71
2023/09/14 12:02:56;;;;;;;;;;;23.10;54.40;;;;;;5025704;28;19925;-72
2023/09/14 12:05:29;;;;;;;;;;;22.90;54.10;;;;;;5025492;28;19929;-72
2023/09/14 12:08:08;;;;;;;;;;;22.60;53.30;;;;;;5025818;28;19937;-71
2023/09/14 12:10:42;;;;;;;;;;;22.40;53.80;;;;;;5025799;28;20388;-72
2023/09/14 12:13:16;;;;;;;;;;;22.50;54.40;;;;;;5025193;28;19952;-71
2023/09/14 12:15:58;;;;;;;;;;;22.60;53.80;;;;;;5025311;28;20377;-71
2023/09/14 12:18:38;;;;;;;;;;;22.70;54.00;;;;;;5023530;28;20013;-72
2023/09/14 12:21:19;;;;;;;;;;;22.90;53.50;;;;;;5025619;28;19934;-73
2023/09/14 12:23:52;;;;;;;;;;;22.90;53.80;;;;;;5024867;28;19983;-72
2023/09/14 12:26:25;;;;;;;;;;;23.00;53.80;;;;;;5024204;28;19933;-72
2023/09/14 12:28:59;;;;;;;;;;;23.00;53.90;;;;;;5022695;28;20389;-71
2023/09/14 12:31:37;;;;;;;;;;;22.80;54.30;;;;;;4992988;28;20016;-70
2023/09/14 12:34:10;;;;;;;;;;;22.60;54.40;;;;;;5020312;28;19936;-71
2023/09/14 12:36:44;;;;;;;;;;;22.60;54.50;;;;;;5025955;28;20483;-71
2023/09/14 12:39:17;;;;;;;;;;;22.50;55.00;;;;;;5025111;28;19929;-71
2023/09/14 12:41:52;;;;;;;;;;;22.40;54.60;;;;;;5025716;28;20403;-71
2023/09/14 12:44:25;;;;;;;;;;;22.30;55.00;;;;;;5025143;28;20055;-71
2023/09/14 12:47:00;;;;;;;;;;;22.20;54.80;;;;;;5025320;28;20483;-70
2023/09/14 12:49:35;;;;;;;;;;;22.20;54.50;;;;;;5025291;28;19937;-71
2023/09/14 12:52:09;;;;;;;;;;;22.20;54.80;;;;;;5010014;28;20403;-71
2023/09/14 12:54:42;;;;;;;;;;;22.10;54.20;;;;;;5023919;28;20035;-72
2023/09/14 12:57:15;;;;;;;;;;;22.10;55.40;;;;;;5023821;28;19944;-71
2023/09/14 13:00:11;;;;;;;;;;;22.10;54.40;;;;;;5021023;28;19940;-72
2023/09/14 13:02:46;;;;;;;;;;;22.10;53.80;;;;;;5022938;28;20586;-71
2023/09/14 13:05:14;;;;;;;;;;;22.10;54.10;;;;;;5023443;28;19980;-72
2023/09/14 13:07:48;;;;;;;;;;;22.00;55.00;;;;;;5023599;28;20253;-72
2023/09/14 13:10:22;;;;;;;;;;;22.10;55.00;;;;;;5025353;28;20372;-71
2023/09/14 13:12:57;;;;;;;;;;;22.00;54.70;;;;;;5024324;28;20380;-71
2023/09/14 13:15:31;;;;;;;;;;;22.10;54.60;;;;;;5024368;28;19943;-71
2023/09/14 13:18:07;;;;;;;;;;;22.10;54.70;;;;;;5021455;28;19926;-72
2023/09/14 13:20:45;;;;;;;;;;;22.10;55.20;;;;;;5024682;28;19955;-71
2023/09/14 13:23:19;;;;;;;;;;;22.20;54.70;;;;;;5023365;28;20368;-70
2023/09/14 13:25:46;;;;;;;;;;;22.20;55.50;;;;;;5024427;28;19932;-70
2023/09/14 13:28:19;;;;;;;;;;;22.20;55.80;;;;;;5022548;28;19926;-72
2023/09/14 13:30:52;;;;;;;;;;;22.20;56.00;;;;;;5024018;28;20017;-71
2023/09/14 13:33:27;;;;;;;;;;;22.20;55.00;;;;;;5022085;28;19940;-72
2023/09/14 13:36:01;;;;;;;;;;;22.20;55.40;;;;;;5024851;28;20032;-72
2023/09/14 13:38:34;;;;;;;;;;;22.10;55.50;;;;;;5024258;28;19925;-72
2023/09/14 13:41:07;;;;;;;;;;;22.10;56.30;;;;;;5023128;28;19961;-71
2023/09/14 13:43:41;;;;;;;;;;;22.00;56.10;;;;;;5024107;28;20028;-73
2023/09/14 13:46:14;;;;;;;;;;;21.90;56.60;;;;;;5023195;28;19929;-71
2023/09/14 13:48:53;;;;;;;;;;;21.90;55.80;;;;;;5021478;28;19933;-72
2023/09/14 13:51:26;;;;;;;;;;;21.80;56.10;;;;;;5022795;28;19936;-72
2023/09/14 13:53:53;;;;;;;;;;;21.70;56.70;;;;;;5020530;28;19937;-73
2023/09/14 13:56:26;;;;;;;;;;;21.70;56.30;;;;;;5021576;28;19969;-72
2023/09/14 13:58:59;;;;;;;;;;;21.70;55.80;;;;;;5021670;28;19933;-72
2023/09/14 14:01:26;;;;;;;;;;;21.70;56.30;;;;;;5023067;28;19936;-72
2023/09/14 14:04:02;;;;;;;;;;;21.70;56.80;;;;;;5023487;28;19936;-72
2023/09/14 14:06:35;;;;;;;;;;;21.60;56.90;;;;;;5021487;28;19994;-72
2023/09/14 14:09:08;;;;;;;;;;;21.50;57.50;;;;;;5020687;28;19956;-72
2023/09/14 14:11:41;;;;;;;;;;;21.40;57.20;;;;;;5016830;28;19929;-72
2023/09/14 14:14:14;;;;;;;;;;;21.40;57.10;;;;;;5016050;28;19929;-72
2023/09/14 14:16:49;;;;;;;;;;;21.40;56.10;;;;;;5016177;28;19929;-72
2023/09/14 14:19:24;;;;;;;;;;;21.30;56.40;;;;;;5022194;28;19929;-72
2023/09/14 14:21:57;;;;;;;;;;;21.40;56.80;;;;;;5022714;28;20367;-68
2023/09/14 14:24:31;;;;;;;;;;;21.40;57.50;;;;;;5021526;28;19964;-67
2023/09/14 14:27:05;;;;;;;;;;;21.30;57.20;;;;;;5022607;28;20292;-65
2023/09/14 14:29:37;;;;;;;;;;;21.30;57.90;;;;;;5020144;28;19961;-66
2023/09/14 14:32:10;;;;;;;;;;;21.30;58.10;;;;;;5022952;28;19960;-67
2023/09/14 14:34:45;;;;;;;;;;;21.20;57.70;;;;;;5021521;28;19932;-67
2023/09/14 14:37:17;;;;;;;;;;;21.20;57.60;;;;;;5009692;28;19937;-68
2023/09/14 14:39:51;;;;;;;;;;;21.20;57.50;;;;;;5021750;28;19930;-68
2023/09/14 14:42:23;;;;;;;;;;;21.20;58.30;;;;;;5021883;28;19965;-68
2023/09/14 14:44:57;;;;;;;;;;;21.20;57.60;;;;;;5023555;28;19940;-67
2023/09/14 14:47:29;;;;;;;;;;;21.10;57.60;;;;;;5021415;28;20483;-68
2023/09/14 14:50:04;;;;;;;;;;;21.10;58.30;;;;;;5018341;28;19933;-67
2023/09/14 14:52:37;;;;;;;;;;;21.10;58.20;;;;;;5021717;28;19925;-66
2023/09/14 14:55:10;;;;;;;;;;;21.10;58.10;;;;;;5018721;28;19933;-67
2023/09/14 14:57:37;;;;;;;;;;;21.00;58.70;;;;;;5022737;28;19932;-68